sensor_id;sensor_type;location;lat;lon;timestamp;pressure;altitude;pressure_sealevel;temperature;humidity
55456;BME280;46961;52.836;6.376;2022-07-10T00:00:38;102751.63;;;14.06;66.16
55456;BME280;46961;52.836;6.376;2022-07-10T00:03:04;102756.84;;;14.08;66.06
55456;BME280;46961;52.836;6.376;2022-07-10T00:05:30;102756.84;;;14.08;65.74
55456;BME280;46961;52.836;6.376;2022-07-10T00:07:56;102755.16;;;14.07;66.41
55456;BME280;46961;52.836;6.376;2022-07-10T00:10:22;102748.94;;;14.06;66.30
55456;BME280;46961;52.836;6.376;2022-07-10T00:12:50;102748.09;;;14.06;66.25
55456;BME280;46961;52.836;6.376;2022-07-10T00:15:16;102750.78;;;14.06;66.05
55456;BME280;46961;52.836;6.376;2022-07-10T00:17:43;102736.53;;;14.05;66.77
55456;BME280;46961;52.836;6.376;2022-07-10T00:20:10;102737.50;;;14.04;66.28
55456;BME280;46961;52.836;6.376;2022-07-10T00:22:36;102726.31;;;13.99;66.27
55456;BME280;46961;52.836;6.376;2022-07-10T00:25:07;102743.25;;;13.99;66.93
55456;BME280;46961;52.836;6.376;2022-07-10T00:27:33;102735.34;;;13.98;66.64
55456;BME280;46961;52.836;6.376;2022-07-10T00:29:58;102728.38;;;13.95;66.62
55456;BME280;46961;52.836;6.376;2022-07-10T00:32:24;102727.66;;;13.93;66.42
55456;BME280;46961;52.836;6.376;2022-07-10T00:34:49;102727.91;;;13.90;67.16
55456;BME280;46961;52.836;6.376;2022-07-10T00:37:15;102732.41;;;13.90;66.92
55456;BME280;46961;52.836;6.376;2022-07-10T00:39:41;102735.34;;;13.86;66.88
55456;BME280;46961;52.836;6.376;2022-07-10T00:44:33;102739.94;;;13.84;66.71
55456;BME280;46961;52.836;6.376;2022-07-10T00:46:59;102741.78;;;13.84;66.99
55456;BME280;46961;52.836;6.376;2022-07-10T00:49:24;102730.31;;;13.82;66.66
55456;BME280;46961;52.836;6.376;2022-07-10T00:51:49;102733.00;;;13.82;67.03
55456;BME280;46961;52.836;6.376;2022-07-10T00:54:16;102728.41;;;13.84;67.51
55456;BME280;46961;52.836;6.376;2022-07-10T00:56:41;102724.75;;;13.85;66.74
55456;BME280;46961;52.836;6.376;2022-07-10T00:59:09;102722.91;;;13.85;67.36
55456;BME280;46961;52.836;6.376;2022-07-10T01:01:34;102718.41;;;13.86;67.09
55456;BME280;46961;52.836;6.376;2022-07-10T01:04:00;102719.53;;;13.83;67.01
55456;BME280;46961;52.836;6.376;2022-07-10T01:06:25;102719.63;;;13.82;67.28
55456;BME280;46961;52.836;6.376;2022-07-10T01:08:50;102717.94;;;13.81;66.63
55456;BME280;46961;52.836;6.376;2022-07-10T01:11:16;102720.75;;;13.79;67.20
55456;BME280;46961;52.836;6.376;2022-07-10T01:13:42;102710.25;;;13.76;66.97
55456;BME280;46961;52.836;6.376;2022-07-10T01:16:08;102710.63;;;13.72;67.50
55456;BME280;46961;52.836;6.376;2022-07-10T01:18:34;102712.59;;;13.69;67.80
55456;BME280;46961;52.836;6.376;2022-07-10T01:20:59;102704.81;;;13.66;67.26
55456;BME280;46961;52.836;6.376;2022-07-10T01:23:25;102710.28;;;13.65;67.25
55456;BME280;46961;52.836;6.376;2022-07-10T01:25:51;102700.66;;;13.62;67.75
55456;BME280;46961;52.836;6.376;2022-07-10T01:28:17;102700.78;;;13.61;67.81
55456;BME280;46961;52.836;6.376;2022-07-10T01:30:43;102699.91;;;13.60;67.64
55456;BME280;46961;52.836;6.376;2022-07-10T01:33:09;102690.31;;;13.58;67.78
55456;BME280;46961;52.836;6.376;2022-07-10T01:35:34;102695.91;;;13.55;67.49
55456;BME280;46961;52.836;6.376;2022-07-10T01:37:59;102691.91;;;13.49;67.56
55456;BME280;46961;52.836;6.376;2022-07-10T01:40:25;102687.75;;;13.45;67.73
55456;BME280;46961;52.836;6.376;2022-07-10T01:42:50;102694.09;;;13.44;67.39
55456;BME280;46961;52.836;6.376;2022-07-10T01:45:16;102676.69;;;13.38;67.69
55456;BME280;46961;52.836;6.376;2022-07-10T01:47:42;102667.94;;;13.36;67.56
55456;BME280;46961;52.836;6.376;2022-07-10T01:50:08;102674.34;;;13.33;67.80
55456;BME280;46961;52.836;6.376;2022-07-10T01:52:34;102678.09;;;13.31;67.94
55456;BME280;46961;52.836;6.376;2022-07-10T01:54:59;102680.91;;;13.29;67.60
55456;BME280;46961;52.836;6.376;2022-07-10T01:57:24;102679.19;;;13.28;67.68
55456;BME280;46961;52.836;6.376;2022-07-10T01:59:50;102663.16;;;13.28;67.47
55456;BME280;46961;52.836;6.376;2022-07-10T02:02:15;102660.47;;;13.28;66.94
55456;BME280;46961;52.836;6.376;2022-07-10T02:04:41;102649.88;;;13.27;68.11
55456;BME280;46961;52.836;6.376;2022-07-10T02:07:13;102650.00;;;13.25;67.27
55456;BME280;46961;52.836;6.376;2022-07-10T02:09:39;102660.72;;;13.25;67.97
55456;BME280;46961;52.836;6.376;2022-07-10T02:12:06;102654.78;;;13.22;67.85
55456;BME280;46961;52.836;6.376;2022-07-10T02:14:32;102655.97;;;13.17;67.69
55456;BME280;46961;52.836;6.376;2022-07-10T02:16:58;102658.97;;;13.13;67.77
55456;BME280;46961;52.836;6.376;2022-07-10T02:19:23;102658.38;;;13.09;68.01
55456;BME280;46961;52.836;6.376;2022-07-10T02:21:49;102648.66;;;13.08;68.12
55456;BME280;46961;52.836;6.376;2022-07-10T02:24:14;102652.28;;;13.07;67.62
55456;BME280;46961;52.836;6.376;2022-07-10T02:26:40;102644.38;;;13.06;67.78
55456;BME280;46961;52.836;6.376;2022-07-10T02:29:05;102644.38;;;13.06;68.17
55456;BME280;46961;52.836;6.376;2022-07-10T02:31:31;102652.41;;;13.06;67.83
55456;BME280;46961;52.836;6.376;2022-07-10T02:34:00;102650.72;;;13.05;67.80
55456;BME280;46961;52.836;6.376;2022-07-10T02:36:25;102649.84;;;13.04;67.92
55456;BME280;46961;52.836;6.376;2022-07-10T02:38:50;102655.19;;;13.04;67.79
55456;BME280;46961;52.836;6.376;2022-07-10T02:41:16;102651.81;;;13.02;68.00
55456;BME280;46961;52.836;6.376;2022-07-10T02:43:41;102654.59;;;13.00;67.61
55456;BME280;46961;52.836;6.376;2022-07-10T02:46:07;102651.19;;;12.98;67.97
55456;BME280;46961;52.836;6.376;2022-07-10T02:48:32;102638.06;;;12.95;68.34
55456;BME280;46961;52.836;6.376;2022-07-10T02:50:57;102644.28;;;12.96;67.83
55456;BME280;46961;52.836;6.376;2022-07-10T02:53:23;102640.97;;;12.92;68.43
55456;BME280;46961;52.836;6.376;2022-07-10T02:55:48;102646.31;;;12.92;68.58
55456;BME280;46961;52.836;6.376;2022-07-10T02:58:14;102642.94;;;12.90;67.98
55456;BME280;46961;52.836;6.376;2022-07-10T03:00:40;102647.53;;;12.88;68.32
55456;BME280;46961;52.836;6.376;2022-07-10T03:03:06;102643.38;;;12.84;68.27
55456;BME280;46961;52.836;6.376;2022-07-10T03:05:33;102644.38;;;12.83;68.57
55456;BME280;46961;52.836;6.376;2022-07-10T03:07:58;102645.31;;;12.82;68.37
55456;BME280;46961;52.836;6.376;2022-07-10T03:10:24;102640.22;;;12.79;68.02
55456;BME280;46961;52.836;6.376;2022-07-10T03:12:49;102638.50;;;12.78;68.42
55456;BME280;46961;52.836;6.376;2022-07-10T03:15:15;102644.47;;;12.81;67.83
55456;BME280;46961;52.836;6.376;2022-07-10T03:17:40;102649.84;;;12.81;68.63
55456;BME280;46961;52.836;6.376;2022-07-10T03:20:07;102653.34;;;12.82;67.90
55456;BME280;46961;52.836;6.376;2022-07-10T03:22:34;102644.38;;;12.83;68.32
55456;BME280;46961;52.836;6.376;2022-07-10T03:24:59;102647.75;;;12.85;68.41
55456;BME280;46961;52.836;6.376;2022-07-10T03:27:25;102644.13;;;12.86;67.88
55456;BME280;46961;52.836;6.376;2022-07-10T03:29:50;102642.16;;;12.88;67.75
55456;BME280;46961;52.836;6.376;2022-07-10T03:32:16;102639.50;;;12.88;68.04
55456;BME280;46961;52.836;6.376;2022-07-10T03:34:41;102640.13;;;12.92;68.35
55456;BME280;46961;52.836;6.376;2022-07-10T03:37:06;102638.28;;;12.92;67.61
55456;BME280;46961;52.836;6.376;2022-07-10T03:39:32;102640.84;;;12.94;68.24
55456;BME280;46961;52.836;6.376;2022-07-10T03:41:57;102632.00;;;12.93;67.60
55456;BME280;46961;52.836;6.376;2022-07-10T03:44:23;102644.28;;;12.96;67.50
55456;BME280;46961;52.836;6.376;2022-07-10T03:46:48;102636.25;;;12.96;67.63
55456;BME280;46961;52.836;6.376;2022-07-10T03:49:13;102641.34;;;12.99;67.60
55456;BME280;46961;52.836;6.376;2022-07-10T03:51:39;102641.25;;;13.00;67.65
55456;BME280;46961;52.836;6.376;2022-07-10T03:54:04;102636.63;;;13.03;67.17
55456;BME280;46961;52.836;6.376;2022-07-10T03:56:29;102632.84;;;13.05;67.87
55456;BME280;46961;52.836;6.376;2022-07-10T03:59:13;102637.25;;;13.06;67.81
55456;BME280;46961;52.836;6.376;2022-07-10T04:01:39;102629.09;;;13.08;67.63
55456;BME280;46961;52.836;6.376;2022-07-10T04:04:04;102630.69;;;13.10;67.84
55456;BME280;46961;52.836;6.376;2022-07-10T04:06:29;102629.69;;;13.11;68.49
55456;BME280;46961;52.836;6.376;2022-07-10T04:08:55;102618.88;;;13.13;68.58
55456;BME280;46961;52.836;6.376;2022-07-10T04:11:20;102618.66;;;13.16;68.06
55456;BME280;46961;52.836;6.376;2022-07-10T04:13:46;102616.56;;;13.20;68.47
55456;BME280;46961;52.836;6.376;2022-07-10T04:16:11;102614.75;;;13.20;68.47
55456;BME280;46961;52.836;6.376;2022-07-10T04:18:41;102612.56;;;13.25;67.82
55456;BME280;46961;52.836;6.376;2022-07-10T04:21:07;102616.97;;;13.26;68.85
55456;BME280;46961;52.836;6.376;2022-07-10T04:23:33;102617.69;;;13.28;68.58
55456;BME280;46961;52.836;6.376;2022-07-10T04:25:59;102625.31;;;13.33;68.49
55456;BME280;46961;52.836;6.376;2022-07-10T04:28:25;102617.84;;;13.38;68.82
55456;BME280;46961;52.836;6.376;2022-07-10T04:30:51;102621.97;;;13.42;68.61
55456;BME280;46961;52.836;6.376;2022-07-10T04:33:16;102624.28;;;13.47;68.92
55456;BME280;46961;52.836;6.376;2022-07-10T04:35:42;102617.72;;;13.51;69.49
55456;BME280;46961;52.836;6.376;2022-07-10T04:38:07;102621.97;;;13.54;69.15
55456;BME280;46961;52.836;6.376;2022-07-10T04:40:33;102628.91;;;13.56;69.51
55456;BME280;46961;52.836;6.376;2022-07-10T04:42:58;102631.09;;;13.62;69.12
55456;BME280;46961;52.836;6.376;2022-07-10T04:45:23;102628.88;;;13.67;69.54
55456;BME280;46961;52.836;6.376;2022-07-10T04:47:49;102630.31;;;13.72;69.67
55456;BME280;46961;52.836;6.376;2022-07-10T04:50:14;102633.50;;;13.77;70.40
55456;BME280;46961;52.836;6.376;2022-07-10T04:52:39;102622.41;;;13.81;70.08
55456;BME280;46961;52.836;6.376;2022-07-10T04:55:05;102630.19;;;13.84;70.68
55456;BME280;46961;52.836;6.376;2022-07-10T04:57:31;102625.44;;;13.88;71.07
55456;BME280;46961;52.836;6.376;2022-07-10T04:59:56;102617.03;;;13.93;71.18
55456;BME280;46961;52.836;6.376;2022-07-10T05:02:22;102619.31;;;13.97;71.45
55456;BME280;46961;52.836;6.376;2022-07-10T05:04:47;102617.25;;;14.01;71.88
55456;BME280;46961;52.836;6.376;2022-07-10T05:07:13;102617.84;;;14.04;71.27
55456;BME280;46961;52.836;6.376;2022-07-10T05:09:39;102621.72;;;14.12;71.40
55456;BME280;46961;52.836;6.376;2022-07-10T05:12:05;102615.25;;;14.14;71.45
55456;BME280;46961;52.836;6.376;2022-07-10T05:14:31;102614.03;;;14.18;71.94
55456;BME280;46961;52.836;6.376;2022-07-10T05:16:56;102617.41;;;14.20;71.57
55456;BME280;46961;52.836;6.376;2022-07-10T05:19:22;102611.72;;;14.25;72.10
55456;BME280;46961;52.836;6.376;2022-07-10T05:21:47;102611.31;;;14.30;72.24
55456;BME280;46961;52.836;6.376;2022-07-10T05:24:12;102619.94;;;14.33;71.78
55456;BME280;46961;52.836;6.376;2022-07-10T05:26:38;102624.06;;;14.37;72.31
55456;BME280;46961;52.836;6.376;2022-07-10T05:29:03;102622.13;;;14.40;72.89
55456;BME280;46961;52.836;6.376;2022-07-10T05:31:28;102626.47;;;14.41;72.35
55456;BME280;46961;52.836;6.376;2022-07-10T05:33:54;102621.13;;;14.41;72.50
55456;BME280;46961;52.836;6.376;2022-07-10T05:36:19;102626.22;;;14.44;72.63
55456;BME280;46961;52.836;6.376;2022-07-10T05:38:45;102632.56;;;14.43;72.90
55456;BME280;46961;52.836;6.376;2022-07-10T05:41:10;102627.78;;;14.46;73.07
55456;BME280;46961;52.836;6.376;2022-07-10T05:43:35;102622.31;;;14.48;73.73
55456;BME280;46961;52.836;6.376;2022-07-10T05:46:01;102629.09;;;14.52;73.02
55456;BME280;46961;52.836;6.376;2022-07-10T05:48:26;102618.25;;;14.53;73.21
55456;BME280;46961;52.836;6.376;2022-07-10T05:50:52;102627.75;;;14.58;73.47
55456;BME280;46961;52.836;6.376;2022-07-10T05:53:17;102634.69;;;14.60;73.13
55456;BME280;46961;52.836;6.376;2022-07-10T05:55:47;102632.00;;;14.60;73.47
55456;BME280;46961;52.836;6.376;2022-07-10T05:58:13;102637.97;;;14.64;73.19
55456;BME280;46961;52.836;6.376;2022-07-10T06:00:39;102637.88;;;14.65;73.91
55456;BME280;46961;52.836;6.376;2022-07-10T06:03:05;102630.41;;;14.69;73.19
55456;BME280;46961;52.836;6.376;2022-07-10T06:05:30;102639.75;;;14.75;73.02
55456;BME280;46961;52.836;6.376;2022-07-10T06:07:55;102637.06;;;14.75;73.33
55456;BME280;46961;52.836;6.376;2022-07-10T06:10:21;102631.56;;;14.76;73.58
55456;BME280;46961;52.836;6.376;2022-07-10T06:12:46;102637.66;;;14.78;73.29
55456;BME280;46961;52.836;6.376;2022-07-10T06:15:12;102636.28;;;14.84;73.50
55456;BME280;46961;52.836;6.376;2022-07-10T06:17:37;102640.41;;;14.88;72.97
55456;BME280;46961;52.836;6.376;2022-07-10T06:20:03;102638.19;;;14.93;73.05
55456;BME280;46961;52.836;6.376;2022-07-10T06:22:28;102637.91;;;14.96;73.27
55456;BME280;46961;52.836;6.376;2022-07-10T06:25:05;102633.25;;;14.98;73.58
55456;BME280;46961;52.836;6.376;2022-07-10T06:27:31;102637.50;;;15.01;72.57
55456;BME280;46961;52.836;6.376;2022-07-10T06:29:57;102637.66;;;14.99;73.16
55456;BME280;46961;52.836;6.376;2022-07-10T06:32:23;102642.88;;;15.01;73.09
55456;BME280;46961;52.836;6.376;2022-07-10T06:34:50;102638.38;;;15.01;73.12
55456;BME280;46961;52.836;6.376;2022-07-10T06:37:16;102641.78;;;15.03;73.04
55456;BME280;46961;52.836;6.376;2022-07-10T06:39:41;102637.38;;;15.02;73.40
55456;BME280;46961;52.836;6.376;2022-07-10T06:42:07;102639.94;;;15.04;72.99
55456;BME280;46961;52.836;6.376;2022-07-10T06:44:33;102640.66;;;15.06;73.36
55456;BME280;46961;52.836;6.376;2022-07-10T06:46:59;102643.22;;;15.07;73.15
55456;BME280;46961;52.836;6.376;2022-07-10T06:49:44;102639.41;;;15.10;73.37
55456;BME280;46961;52.836;6.376;2022-07-10T06:52:11;102643.06;;;15.09;73.92
55456;BME280;46961;52.836;6.376;2022-07-10T06:54:36;102637.84;;;15.07;74.06
55456;BME280;46961;52.836;6.376;2022-07-10T06:57:02;102640.97;;;15.13;74.10
55456;BME280;46961;52.836;6.376;2022-07-10T06:59:28;102639.00;;;15.15;74.54
55456;BME280;46961;52.836;6.376;2022-07-10T07:01:53;102640.72;;;15.16;74.16
55456;BME280;46961;52.836;6.376;2022-07-10T07:04:19;102641.41;;;15.18;74.53
55456;BME280;46961;52.836;6.376;2022-07-10T07:06:44;102644.81;;;15.20;74.50
55456;BME280;46961;52.836;6.376;2022-07-10T07:09:10;102648.34;;;15.20;74.55
55456;BME280;46961;52.836;6.376;2022-07-10T07:11:36;102643.13;;;15.19;74.43
55456;BME280;46961;52.836;6.376;2022-07-10T07:14:01;102646.94;;;15.16;74.79
55456;BME280;46961;52.836;6.376;2022-07-10T07:16:26;102647.19;;;15.13;75.26
55456;BME280;46961;52.836;6.376;2022-07-10T07:19:08;102641.81;;;15.13;75.25
55456;BME280;46961;52.836;6.376;2022-07-10T07:21:35;102647.19;;;15.13;75.44
55456;BME280;46961;52.836;6.376;2022-07-10T07:24:19;102632.81;;;15.14;75.52
55456;BME280;46961;52.836;6.376;2022-07-10T07:26:45;102640.59;;;15.17;75.55
55456;BME280;46961;52.836;6.376;2022-07-10T07:29:13;102635.91;;;15.19;75.79
55456;BME280;46961;52.836;6.376;2022-07-10T07:31:39;102645.28;;;15.25;75.17
55456;BME280;46961;52.836;6.376;2022-07-10T07:34:04;102640.75;;;15.25;75.45
55456;BME280;46961;52.836;6.376;2022-07-10T07:36:30;102642.19;;;15.30;75.29
55456;BME280;46961;52.836;6.376;2022-07-10T07:38:56;102638.97;;;15.36;75.09
55456;BME280;46961;52.836;6.376;2022-07-10T07:41:21;102640.28;;;15.41;75.07
55456;BME280;46961;52.836;6.376;2022-07-10T07:43:48;102637.88;;;15.48;75.18
55456;BME280;46961;52.836;6.376;2022-07-10T07:46:13;102632.97;;;15.53;74.93
55456;BME280;46961;52.836;6.376;2022-07-10T07:48:38;102635.94;;;15.60;75.10
55456;BME280;46961;52.836;6.376;2022-07-10T07:51:04;102638.38;;;15.63;74.28
55456;BME280;46961;52.836;6.376;2022-07-10T07:53:29;102628.34;;;15.65;74.30
55456;BME280;46961;52.836;6.376;2022-07-10T07:55:55;102636.13;;;15.68;74.35
55456;BME280;46961;52.836;6.376;2022-07-10T07:58:20;102636.69;;;15.72;74.26
55456;BME280;46961;52.836;6.376;2022-07-10T08:00:45;102632.88;;;15.74;74.03
55456;BME280;46961;52.836;6.376;2022-07-10T08:03:11;102634.31;;;15.79;73.60
55456;BME280;46961;52.836;6.376;2022-07-10T08:05:36;102645.53;;;15.84;73.51
55456;BME280;46961;52.836;6.376;2022-07-10T08:08:02;102639.88;;;15.87;73.72
55456;BME280;46961;52.836;6.376;2022-07-10T08:10:32;102640.47;;;15.90;73.53
55456;BME280;46961;52.836;6.376;2022-07-10T08:12:58;102641.28;;;15.91;73.60
55456;BME280;46961;52.836;6.376;2022-07-10T08:15:23;102635.94;;;15.91;73.80
55456;BME280;46961;52.836;6.376;2022-07-10T08:17:50;102643.84;;;15.92;74.17
55456;BME280;46961;52.836;6.376;2022-07-10T08:20:16;102640.72;;;15.97;74.47
55456;BME280;46961;52.836;6.376;2022-07-10T08:22:42;102637.34;;;15.95;73.98
55456;BME280;46961;52.836;6.376;2022-07-10T08:25:09;102648.22;;;15.93;74.32
55456;BME280;46961;52.836;6.376;2022-07-10T08:27:34;102651.19;;;15.90;73.92
55456;BME280;46961;52.836;6.376;2022-07-10T08:29:59;102643.69;;;15.84;73.97
55456;BME280;46961;52.836;6.376;2022-07-10T08:32:25;102640.16;;;15.84;74.26
55456;BME280;46961;52.836;6.376;2022-07-10T08:34:52;102650.63;;;15.87;74.31
55456;BME280;46961;52.836;6.376;2022-07-10T08:37:18;102647.50;;;15.82;73.60
55456;BME280;46961;52.836;6.376;2022-07-10T08:39:44;102649.47;;;15.80;73.49
55456;BME280;46961;52.836;6.376;2022-07-10T08:42:10;102650.81;;;15.74;74.05
55456;BME280;46961;52.836;6.376;2022-07-10T08:44:36;102652.22;;;15.68;73.88
55456;BME280;46961;52.836;6.376;2022-07-10T08:47:03;102649.81;;;15.65;74.34
55456;BME280;46961;52.836;6.376;2022-07-10T08:49:30;102650.78;;;15.64;74.76
55456;BME280;46961;52.836;6.376;2022-07-10T08:52:06;102653.75;;;15.61;74.94
55456;BME280;46961;52.836;6.376;2022-07-10T08:54:33;102650.38;;;15.59;74.64
55456;BME280;46961;52.836;6.376;2022-07-10T08:57:01;102656.44;;;15.61;75.22
55456;BME280;46961;52.836;6.376;2022-07-10T08:59:28;102648.09;;;15.64;75.16
55456;BME280;46961;52.836;6.376;2022-07-10T09:01:54;102653.34;;;15.66;75.39
55456;BME280;46961;52.836;6.376;2022-07-10T09:04:22;102653.19;;;15.67;75.30
55456;BME280;46961;52.836;6.376;2022-07-10T09:06:48;102653.19;;;15.67;75.40
55456;BME280;46961;52.836;6.376;2022-07-10T09:09:15;102646.00;;;15.68;75.25
55456;BME280;46961;52.836;6.376;2022-07-10T09:11:41;102643.19;;;15.69;74.78
55456;BME280;46961;52.836;6.376;2022-07-10T09:14:09;102642.34;;;15.69;75.08
55456;BME280;46961;52.836;6.376;2022-07-10T09:16:38;102638.38;;;15.73;74.98
55456;BME280;46961;52.836;6.376;2022-07-10T09:19:27;102632.63;;;15.77;75.10
55456;BME280;46961;52.836;6.376;2022-07-10T09:22:04;102634.50;;;15.87;75.33
55456;BME280;46961;52.836;6.376;2022-07-10T09:24:46;102630.13;;;15.96;75.00
55456;BME280;46961;52.836;6.376;2022-07-10T09:27:14;102630.00;;;16.07;75.62
55456;BME280;46961;52.836;6.376;2022-07-10T09:29:51;102630.19;;;16.25;76.00
55456;BME280;46961;52.836;6.376;2022-07-10T09:32:24;102626.94;;;16.41;75.86
55456;BME280;46961;52.836;6.376;2022-07-10T09:34:51;102627.47;;;16.54;75.20
55456;BME280;46961;52.836;6.376;2022-07-10T09:37:39;102630.31;;;16.62;73.66
55456;BME280;46961;52.836;6.376;2022-07-10T09:40:06;102622.63;;;16.68;73.61
55456;BME280;46961;52.836;6.376;2022-07-10T09:42:42;102625.19;;;16.69;72.91
55456;BME280;46961;52.836;6.376;2022-07-10T09:47:38;102635.38;;;16.66;72.90
55456;BME280;46961;52.836;6.376;2022-07-10T09:50:19;102635.69;;;16.62;73.00
55456;BME280;46961;52.836;6.376;2022-07-10T09:52:45;102629.19;;;16.55;72.84
55456;BME280;46961;52.836;6.376;2022-07-10T09:55:19;102639.66;;;16.49;72.41
55456;BME280;46961;52.836;6.376;2022-07-10T09:57:57;102630.31;;;16.43;72.26
55456;BME280;46961;52.836;6.376;2022-07-10T10:00:25;102623.50;;;16.39;72.87
55456;BME280;46961;52.836;6.376;2022-07-10T10:02:55;102624.78;;;16.44;73.58
55456;BME280;46961;52.836;6.376;2022-07-10T10:05:26;102622.38;;;16.51;73.82
55456;BME280;46961;52.836;6.376;2022-07-10T10:07:56;102618.28;;;16.57;73.45
55456;BME280;46961;52.836;6.376;2022-07-10T10:10:22;102630.16;;;16.64;73.24
55456;BME280;46961;52.836;6.376;2022-07-10T10:12:54;102625.75;;;16.73;73.41
55456;BME280;46961;52.836;6.376;2022-07-10T10:15:22;102634.38;;;16.76;73.84
55456;BME280;46961;52.836;6.376;2022-07-10T10:17:50;102629.00;;;16.76;73.19
55456;BME280;46961;52.836;6.376;2022-07-10T10:20:16;102630.00;;;16.75;73.44
55456;BME280;46961;52.836;6.376;2022-07-10T10:23:02;102627.47;;;16.74;73.25
55456;BME280;46961;52.836;6.376;2022-07-10T10:25:32;102630.69;;;16.77;73.75
55456;BME280;46961;52.836;6.376;2022-07-10T10:27:59;102625.03;;;16.80;73.45
55456;BME280;46961;52.836;6.376;2022-07-10T10:30:26;102626.59;;;16.83;72.85
55456;BME280;46961;52.836;6.376;2022-07-10T10:32:51;102624.72;;;16.84;72.56
55456;BME280;46961;52.836;6.376;2022-07-10T10:35:42;102618.69;;;16.91;72.53
55456;BME280;46961;52.836;6.376;2022-07-10T10:38:09;102612.00;;;16.95;71.87
55456;BME280;46961;52.836;6.376;2022-07-10T10:40:35;102598.81;;;17.02;72.50
55456;BME280;46961;52.836;6.376;2022-07-10T10:45:43;102599.84;;;17.29;71.37
55456;BME280;46961;52.836;6.376;2022-07-10T10:48:13;102605.88;;;17.41;70.39
55456;BME280;46961;52.836;6.376;2022-07-10T10:50:40;102600.75;;;17.47;70.07
55456;BME280;46961;52.836;6.376;2022-07-10T10:53:20;102603.81;;;17.53;69.22
55456;BME280;46961;52.836;6.376;2022-07-10T10:58:46;102613.16;;;17.58;68.43
55456;BME280;46961;52.836;6.376;2022-07-10T11:06:40;102611.72;;;17.36;69.01
55456;BME280;46961;52.836;6.376;2022-07-10T11:09:31;102606.63;;;17.33;69.12
55456;BME280;46961;52.836;6.376;2022-07-10T11:12:07;102597.56;;;17.34;69.54
55456;BME280;46961;52.836;6.376;2022-07-10T11:14:45;102603.19;;;17.41;70.21
55456;BME280;46961;52.836;6.376;2022-07-10T11:17:11;102594.06;;;17.52;70.27
55456;BME280;46961;52.836;6.376;2022-07-10T11:19:38;102596.25;;;17.66;70.04
55456;BME280;46961;52.836;6.376;2022-07-10T11:22:33;102587.50;;;17.82;69.52
55456;BME280;46961;52.836;6.376;2022-07-10T11:28:01;102590.09;;;18.02;69.06
55456;BME280;46961;52.836;6.376;2022-07-10T11:33:11;102602.09;;;18.07;66.82
55456;BME280;46961;52.836;6.376;2022-07-10T11:35:38;102608.97;;;18.02;66.87
55456;BME280;46961;52.836;6.376;2022-07-10T11:38:05;102612.56;;;17.92;66.46
55456;BME280;46961;52.836;6.376;2022-07-10T11:40:30;102610.59;;;17.84;66.99
55456;BME280;46961;52.836;6.376;2022-07-10T11:43:00;102608.50;;;17.78;67.21
55456;BME280;46961;52.836;6.376;2022-07-10T11:45:31;102614.50;;;17.72;67.57
55456;BME280;46961;52.836;6.376;2022-07-10T11:47:58;102606.16;;;17.65;68.04
55456;BME280;46961;52.836;6.376;2022-07-10T11:50:24;102612.56;;;17.64;68.36
55456;BME280;46961;52.836;6.376;2022-07-10T11:52:50;102613.25;;;17.66;68.26
55456;BME280;46961;52.836;6.376;2022-07-10T11:55:16;102618.91;;;17.73;68.76
55456;BME280;46961;52.836;6.376;2022-07-10T11:57:42;102613.34;;;17.75;68.06
55456;BME280;46961;52.836;6.376;2022-07-10T12:00:29;102621.59;;;17.73;67.37
55456;BME280;46961;52.836;6.376;2022-07-10T12:02:56;102609.94;;;17.73;67.06
55456;BME280;46961;52.836;6.376;2022-07-10T12:05:37;102620.88;;;17.71;66.59
55456;BME280;46961;52.836;6.376;2022-07-10T12:08:04;102616.41;;;17.62;66.56
55456;BME280;46961;52.836;6.376;2022-07-10T12:10:31;102618.53;;;17.58;66.86
55456;BME280;46961;52.836;6.376;2022-07-10T12:13:08;102617.53;;;17.59;66.33
55456;BME280;46961;52.836;6.376;2022-07-10T12:15:45;102617.84;;;17.56;66.39
55456;BME280;46961;52.836;6.376;2022-07-10T12:18:20;102611.63;;;17.56;66.34
55456;BME280;46961;52.836;6.376;2022-07-10T12:20:47;102617.53;;;17.59;66.54
55456;BME280;46961;52.836;6.376;2022-07-10T12:23:16;102616.41;;;17.62;66.48
55456;BME280;46961;52.836;6.376;2022-07-10T12:25:43;102619.19;;;17.70;65.97
55456;BME280;46961;52.836;6.376;2022-07-10T12:28:09;102604.66;;;17.81;66.58
55456;BME280;46961;52.836;6.376;2022-07-10T12:30:39;102609.03;;;17.92;66.49
55456;BME280;46961;52.836;6.376;2022-07-10T12:33:15;102612.09;;;17.97;65.13
55456;BME280;46961;52.836;6.376;2022-07-10T12:36:00;102604.56;;;18.00;65.04
55456;BME280;46961;52.836;6.376;2022-07-10T12:38:27;102614.19;;;18.03;64.70
55456;BME280;46961;52.836;6.376;2022-07-10T12:41:10;102599.03;;;18.02;63.98
55456;BME280;46961;52.836;6.376;2022-07-10T12:43:36;102598.47;;;17.98;64.25
55456;BME280;46961;52.836;6.376;2022-07-10T12:46:12;102598.63;;;17.97;63.65
55456;BME280;46961;52.836;6.376;2022-07-10T12:48:41;102606.41;;;18.00;64.15
55456;BME280;46961;52.836;6.376;2022-07-10T12:51:23;102606.47;;;18.08;63.93
55456;BME280;46961;52.836;6.376;2022-07-10T12:53:49;102603.63;;;18.10;63.57
55456;BME280;46961;52.836;6.376;2022-07-10T12:56:35;102601.84;;;18.18;63.40
55456;BME280;46961;52.836;6.376;2022-07-10T12:59:03;102608.31;;;18.26;63.37
55456;BME280;46961;52.836;6.376;2022-07-10T13:01:43;102599.78;;;18.30;62.50
55456;BME280;46961;52.836;6.376;2022-07-10T13:04:09;102600.31;;;18.34;62.14
55456;BME280;46961;52.836;6.376;2022-07-10T13:06:36;102603.56;;;18.38;62.58
55456;BME280;46961;52.836;6.376;2022-07-10T13:09:03;102599.53;;;18.42;62.41
55456;BME280;46961;52.836;6.376;2022-07-10T13:11:28;102605.94;;;18.41;61.63
55456;BME280;46961;52.836;6.376;2022-07-10T13:13:54;102600.72;;;18.39;61.74